Tiempo atmosférico en la estación meteorológica de Villarino De Los Aires, Salamanca (700 m.)



Fecha
DESCASC
Temp. máxima en grados centígrados (hora)
DESCASC
Temp. mínima en grados centígrados (hora)
DESCASC
Temp. media en grados centígrados
DESCASC
Racha de viento máxima en m/sg (hora)
DESCASC
Velocidad máxima media en intervalos de 10 minutos(hora)
DESCASC
Precipitaciones diarias en mm
DESCASC
Precipitaciones de 00:00 a 06:00 en mm
DESCASC
Precipitaciones de 06:00 a 12:00 en mm
DESCASC
Precipitaciones de 12:00 a 18:00 en mm
DESCASC
Precipitaciones de 18:00 a 24:00 en mm
DESCASC
19-01-2020 10.1 (16:20) 1.1 (22:20) 5.6 17.78 (17:20) 12.22 (14:50) 0.2 0 0 0.2 0
18-01-2020 12.8 (16:10) 5.4 (02:50) 9.1 18.61 (17:30) 11.94 (17:30) 6.8 3.6 1.6 0 1.6
17-01-2020 11 (14:50) 5.9 (23:50) 8.5 10.56 (03:00) 6.94 (05:30) 4.2 4 0.2 0 0
16-01-2020 12.5 (13:30) 6.5 (00:00) 9.5 14.72 (21:00) 9.17 (19:50) 4.8 0 0 0 4.8
15-01-2020 12.5 (16:00) 6.3 (00:00) 9.4 14.17 (01:00) 8.06 (09:20) 10.4 0 10.2 0 0.2
14-01-2020 8.5 (16:30) 4.4 (00:00) 6.5 11.67 (16:50) 6.94 (23:20) 0.6 0 0 0 0.6
13-01-2020 10.2 (17:00) -4.6 (-00:0) 2.8 7.5 (23:50) 4.44 (23:40) 0.2 0 0.2 0 0
12-01-2020 5.8 (15:40) -4.2 (08:10) 0.8 4.17 (14:40) 2.78 (13:30) 0 0 0 0 0
11-01-2020 10.6 (16:30) -2.1 (-00:0) 4.3 6.11 (13:30) 4.17 (13:30) 0 0 0 0 0
10-01-2020 11.4 (15:20) -0.1 (00:00) 5.6 8.61 (01:20) 5.83 (15:30) 0 0 0 0 0
09-01-2020 12 (16:10) -0.7 (-00:0) 5.7 10.56 (17:30) 7.78 (18:40) 0 0 0 0 0
08-01-2020 12.9 (17:40) -3.2 (-00:0) 4.8 4.44 (13:00) 2.78 (12:50) 0.2 0 0.2 0 0
07-01-2020 6.1 (16:40) -2.4 (-00:0) 1.8 4.72 (02:30) 3.33 (02:30) 0 0 0 0 0
06-01-2020 1.7 (16:40) -1.5 (-00:0) 0.1 3.33 (21:30) 1.67 (13:20) 0.2 0 0.2 0 0
05-01-2020 8.1 (17:00) -0.2 (00:00) 4 6.11 (06:00) 3.33 (06:00) 0 0 0 0 0
04-01-2020 7.3 (14:30) 1.2 (00:00) 4.3 8.61 (18:20) 5.56 (15:40) 0 0 0 0 0
03-01-2020 10.6 (16:50) 2.9 (00:00) 6.8 5.56 (07:00) 4.17 (06:40) 0 0 0 0 0
02-01-2020 9.6 (15:20) -4.6 (-00:0) 2.5 5.28 (20:40) 4.17 (20:40) 0.2 0 0.2 0 0
01-01-2020 13.4 (16:20) -4.4 (-00:0) 4.5 2.22 (13:50) 1.67 (13:40) 0.2 0 0.2 0 0
31-12-2019 15.9 (16:40) -2.8 (-00:0) 6.5 2.5 (10:50) 1.67 (18:10) 0.2 0 0.2 0 0
30-12-2019 -- (--) -- (--) -- -- (--) -- (--) -- 0 0 -- 0
29-12-2019 16 (16:20) -0.2 (00:00) 7.9 5 (02:30) 3.61 (02:30) 0 0 0 0 0
28-12-2019 13.3 (16:00) -0.1 (00:00) 6.6 6.39 (05:30) 3.89 (06:00) 0 0 0 0 0
27-12-2019 7.2 (15:40) 0.9 (00:00) 4 7.22 (06:10) 4.44 (06:10) 0 0 0 0 0
26-12-2019 10.7 (00:30) 3.5 (00:00) 7.1 6.11 (00:20) 3.89 (16:20) 0 0 0 0 0
25-12-2019 11.9 (15:10) 6.6 (00:00) 9.2 7.5 (05:30) 4.72 (04:10) 0 0 0 0 0
24-12-2019 15.6 (16:00) 5.9 (07:50) 10.8 6.67 (04:30) 5 (04:30) 0 0 0 0 0
23-12-2019 13.6 (15:30) 3.8 (00:00) 8.7 8.06 (01:30) 5 (20:30) 0 0 0 0 0

Gráficas

Temp. máximas Temp. mínimas Temp. medias Precipitaciones Rachas de viento máximas Velocidades máximas media en intervalos de 10 minutos

Datos horarios

Fecha y hora oficial Temperatura (ºC) Velocidad del viento (km/h) Dirección del viento Racha (km/h) Dirección de racha Precipitación (mm) Presión (hPa) Tendencia (hPa) Humedad (%)
2020-01-21 23:00:00 4.4 28 Este 54 Este 0 -- -- 79
2020-01-21 22:00:00 4.5 31 Este 49 Nordeste 0 -- -- 79
2020-01-21 21:00:00 4.1 27 Nordeste 43 Nordeste 0 -- -- 80
2020-01-21 20:00:00 3.8 27 Nordeste 43 Este 0 -- -- 82
2020-01-21 19:00:00 4.3 24 Este 59 Nordeste 0 -- -- 79
2020-01-21 18:00:00 5.3 30 Este 56 Nordeste 0 -- -- 74
2020-01-21 17:00:00 6 28 Nordeste 53 Este 0 -- -- 71
2020-01-21 16:00:00 6.3 29 Nordeste 51 Nordeste 0 -- -- 69
2020-01-21 15:00:00 6.2 34 Nordeste 49 Nordeste 0 -- -- 67
2020-01-21 14:00:00 5.5 31 Nordeste 52 Nordeste 0 -- -- 69
2020-01-21 13:00:00 5.7 28 Nordeste 59 Nordeste 0 -- -- 65
2020-01-21 12:00:00 5.5 37 Nordeste 64 Nordeste 0 -- -- 65
2020-01-21 11:00:00 4.5 36 Nordeste 62 Nordeste 0 -- -- 67
2020-01-21 10:00:00 2.7 31 Nordeste 58 Nordeste 0 -- -- 71
2020-01-21 09:00:00 1.2 28 Nordeste 49 Nordeste 0 -- -- 76
2020-01-21 08:00:00 1 28 Nordeste 43 Este 0 -- -- 77
2020-01-21 07:00:00 0.8 28 Nordeste 45 Este 0 -- -- 79
2020-01-21 06:00:00 1 25 Nordeste 52 Este 0 -- -- 78
2020-01-21 05:00:00 1.1 30 Este 54 Nordeste 0 -- -- 79
2020-01-21 04:00:00 0.9 26 Nordeste 50 Nordeste 0 -- -- 80
2020-01-21 03:00:00 1 27 Nordeste 49 Nordeste 0 -- -- 81
2020-01-21 02:00:00 0.8 27 Nordeste 50 Nordeste 0 -- -- 79
2020-01-21 01:00:00 1.1 27 Nordeste 51 Nordeste 0 -- -- 78
2020-01-21 00:00:00 1.2 26 Nordeste 52 Este 0 -- -- 76
2020-01-20 23:00:00 1.3 26 Nordeste 48 Nordeste 0 -- -- 74
2020-01-20 22:00:00 1.7 27 Nordeste 49 Nordeste 0 -- -- 72
2020-01-20 21:00:00 2 29 Nordeste 62 Nordeste 0 -- -- 69
2020-01-20 20:00:00 2.2 31 Nordeste 57 Este 0 -- -- 65
2020-01-20 19:00:00 2.4 34 Nordeste 63 Este 0 -- -- 62
2020-01-20 18:00:00 3 38 Este 62 Este 0 -- -- 60
2020-01-20 17:00:00 3.1 35 Nordeste 58 Nordeste 0 -- -- 61
2020-01-20 16:00:00 3.1 31 Este 65 Nordeste 0 -- -- 58
2020-01-20 15:00:00 3.7 43 Nordeste 70 Nordeste 0 -- -- 56
2020-01-20 14:00:00 4 42 Este 69 Nordeste 0 -- -- 52
2020-01-20 13:00:00 3.8 35 Nordeste 72 Nordeste 0 -- -- 55
2020-01-20 12:00:00 3.4 48 Este 81 Este 0 -- -- 55
2020-01-20 11:00:00 2.7 33 Nordeste 56 Nordeste 0 -- -- 60
2020-01-20 10:00:00 1.7 33 Nordeste 57 Nordeste 0 -- -- 63
2020-01-20 09:00:00 0.4 27 Nordeste 63 Nordeste 0 -- -- 67
2020-01-20 08:00:00 0.7 36 Nordeste 62 Nordeste 0 -- -- 65
2020-01-20 07:00:00 1 39 Nordeste 67 Nordeste 0 -- -- 64
2020-01-20 06:00:00 1 38 Este 67 Este 0 -- -- 65
2020-01-20 05:00:00 1 32 Este 51 Este 0 -- -- 68
2020-01-20 04:00:00 0.6 23 Este 46 Nordeste 0 -- -- 71
2020-01-20 03:00:00 0.9 24 Nordeste 43 Este 0 -- -- 69
2020-01-20 02:00:00 1.3 24 Este 46 Este 0 -- -- 66
2020-01-20 01:00:00 1.2 21 Este 42 Nordeste 0 -- -- 67
2020-01-20 00:00:00 1.7 21 Este 40 Nordeste 0 -- -- 62
2020-01-19 23:00:00 1.6 24 Nordeste 39 Nordeste 0 -- -- 62
2020-01-19 22:00:00 1.5 17 Este 36 Este 0 -- -- 61
2020-01-19 21:00:00 2.5 22 Este 40 Nordeste 0 -- -- 56
2020-01-19 20:00:00 3.4 19 Este 38 Este 0 -- -- 51
2020-01-19 19:00:00 5.3 25 Nordeste 54 Nordeste 0 -- -- 45
2020-01-19 18:00:00 7.4 33 Nordeste 64 Nordeste 0 -- -- 39
2020-01-19 17:00:00 8.8 37 Nordeste 59 Nordeste 0 -- -- 38
2020-01-19 16:00:00 9.9 29 Nordeste 59 Nordeste 0 -- -- 40
2020-01-19 15:00:00 9.5 40 Nordeste 62 Nordeste 0 -- -- 44
2020-01-19 14:00:00 9.3 37 Nordeste 62 Nordeste 0 -- -- 46
2020-01-19 13:00:00 9.2 27 Nordeste 54 Nordeste 0.2 -- -- 51
2020-01-19 12:00:00 7.7 16 Nordeste 30 Nordeste 0 -- -- 72
2020-01-19 11:00:00 6.9 10 Nordeste 18 Este 0 -- -- 76
2020-01-19 10:00:00 4.4 12 Este 17 Este 0 -- -- 90
2020-01-19 09:00:00 2.4 4 Este 8 Este 0 -- -- 99
2020-01-19 08:00:00 2.3 3 Nordeste 6 Norte 0 -- -- 96
2020-01-19 07:00:00 2.4 3 Oeste 9 Oeste 0 -- -- 96
2020-01-19 06:00:00 3.6 6 Oeste 12 Oeste 0 -- -- 95
2020-01-19 05:00:00 4.1 6 Oeste 13 Oeste 0 -- -- 93
2020-01-19 04:00:00 4.3 6 Oeste 19 Noroeste 0 -- -- 95
2020-01-19 03:00:00 4.6 12 Oeste 18 Noroeste 0 -- -- 95
2020-01-19 02:00:00 5.3 12 Oeste 19 Oeste 0 -- -- 93
2020-01-19 01:00:00 5.7 10 Oeste 21 Oeste 0 -- -- 94
2020-01-19 00:00:00 5.6 12 Oeste 31 Oeste 0 -- -- 94
2020-01-18 23:00:00 5.7 19 Oeste 33 Oeste 0.6 -- -- 91
2020-01-18 22:00:00 6.5 29 Oeste 46 Oeste 0 -- -- 82
2020-01-18 21:00:00 6.3 24 Oeste 39 Oeste 0 -- -- 82
2020-01-18 20:00:00 6.6 21 Oeste 59 Oeste 0.4 -- -- 89
2020-01-18 19:00:00 7.7 39 Oeste 65 Oeste 0.6 -- -- 84
2020-01-18 18:00:00 10.5 34 Oeste 67 Oeste 0 -- -- 71
2020-01-18 17:00:00 11.5 40 Oeste 63 Oeste 0 -- -- 75
2020-01-18 16:00:00 11.5 22 Sudoeste 43 Sudoeste 0 -- -- 91
2020-01-18 15:00:00 10.7 23 Sudoeste 42 Sudoeste 0 -- -- 92
2020-01-18 14:00:00 10.1 24 Sudoeste 41 Sudoeste 0 -- -- 91
2020-01-18 13:00:00 9.5 25 Sudoeste 49 Sur 0 -- -- 94
2020-01-18 12:00:00 8.7 23 Sudoeste 40 Sudoeste 0.2 -- -- 97
2020-01-18 11:00:00 7.8 11 Oeste 22 Oeste 0.2 -- -- 98
2020-01-18 10:00:00 7.1 5 Oeste 14 Sur 0.2 -- -- 97
2020-01-18 09:00:00 6.8 6 Sur 22 Sur 0.4 -- -- 96
2020-01-18 08:00:00 7.2 13 Sur 23 Sur 0.2 -- -- 93
2020-01-18 07:00:00 6.8 9 Sur 20 Sur 0.4 -- -- 94
2020-01-18 06:00:00 6.4 5 Sur 16 Sur 1 -- -- 96
2020-01-18 05:00:00 5.9 5 Sudeste 26 Sur 1.6 -- -- 94
2020-01-18 04:00:00 6 14 Sur 19 Sur 1 -- -- 92
2020-01-18 03:00:00 5.5 0 Calma 9 Sudoeste 0 -- -- 85
2020-01-18 02:00:00 5.7 3 Sur 20 Sur 0 -- -- 83
2020-01-18 01:00:00 6.2 13 Sur 17 Sur 0 -- -- 76
2020-01-18 00:00:00 6.3 9 Sur 14 Sur 0 -- -- 73
2020-01-17 23:00:00 6.4 7 Sudeste 10 Sudeste 0 -- -- 72
2020-01-17 22:00:00 6.5 3 Sudeste 9 Sudeste 0 -- -- 72
2020-01-17 21:00:00 6.6 6 Sudeste 8 Este 0 -- -- 70
2020-01-17 20:00:00 6.5 4 Sudeste 8 Este 0 -- -- 73
2020-01-17 19:00:00 7.1 4 Sudoeste 11 Sudoeste 0 -- -- 69
2020-01-17 18:00:00 7.8 7 Sudoeste 12 Oeste 0 -- -- 65
2020-01-17 17:00:00 9 9 Sudoeste 23 Oeste 0 -- -- 59
2020-01-17 16:00:00 10.3 17 Oeste 25 Oeste 0 -- -- 56
2020-01-17 15:00:00 10.7 17 Oeste 28 Oeste 0 -- -- 60
2020-01-17 14:00:00 10.5 17 Oeste 29 Oeste 0 -- -- 60
2020-01-17 13:00:00 8.6 17 Oeste 30 Oeste 0 -- -- 70
2020-01-17 12:00:00 9.1 18 Oeste 32 Oeste 0 -- -- 77
2020-01-17 11:00:00 8.2 17 Oeste 27 Oeste 0 -- -- 82
2020-01-17 10:00:00 7 11 Oeste 31 Sudoeste 0 -- -- 87
2020-01-17 09:00:00 6.4 20 Oeste 31 Oeste 0.2 -- -- 90
2020-01-17 08:00:00 6.7 21 Sudoeste 30 Oeste 0 -- -- 92
2020-01-17 07:00:00 6.7 16 Sudoeste 33 Sudoeste 0 -- -- 95
2020-01-17 06:00:00 6.8 21 Oeste 36 Oeste 1 -- -- 95
2020-01-17 05:00:00 6.7 14 Oeste 33 Sudoeste 1.2 -- -- 96
2020-01-17 04:00:00 6.7 21 Sudoeste 32 Sudoeste 1.6 -- -- 96
2020-01-17 03:00:00 6.9 22 Sudoeste 38 Sudoeste 0.2 -- -- 94
2020-01-17 02:00:00 6.3 16 Sur 28 Sur 0 -- -- 95
2020-01-17 01:00:00 6.4 20 Sur 33 Sudoeste 0 -- -- 95
2020-01-17 00:00:00 6.5 19 Sur 33 Sudoeste 0.2 -- -- 96
2020-01-16 23:00:00 7.1 24 Sudoeste 38 Sudoeste 0 -- -- 96
2020-01-16 22:00:00 7.9 23 Sudoeste 46 Sudoeste 2.2 -- -- 95
2020-01-16 21:00:00 8.1 31 Sudoeste 53 Sudoeste 1.4 -- -- 93
2020-01-16 20:00:00 8.4 31 Sur 51 Sur 1 -- -- 91
2020-01-16 19:00:00 9.1 24 Sur 48 Sur 0 -- -- 81
2020-01-16 18:00:00 10.1 28 Sur 49 Sur 0 -- -- 72
2020-01-16 17:00:00 10.4 25 Sur 48 Sur 0 -- -- 71
2020-01-16 16:00:00 11 25 Sudoeste 48 Sudoeste 0 -- -- 68
2020-01-16 15:00:00 11.6 26 Sur 49 Sur 0 -- -- 65
2020-01-16 14:00:00 11.6 27 Sudoeste 47 Sur 0 -- -- 67
2020-01-16 13:00:00 11.5 20 Sudoeste 46 Sur 0 -- -- 70
2020-01-16 12:00:00 11.7 23 Sudoeste 42 Sudoeste 0 -- -- 73
2020-01-16 11:00:00 10.9 24 Sur 45 Sur 0 -- -- 78
2020-01-16 10:00:00 10.1 24 Sur 43 Sudoeste 0 -- -- 84
2020-01-16 09:00:00 9.7 23 Sur 41 Sur 0 -- -- 89
2020-01-16 08:00:00 9.3 19 Sur 33 Sur 0 -- -- 91
2020-01-16 07:00:00 9.3 13 Sudoeste 29 Sur 0 -- -- 92
2020-01-16 06:00:00 9.5 19 Sur 46 Sur 0 -- -- 91
2020-01-16 05:00:00 9.6 18 Sur 40 Sur 0 -- -- 91
2020-01-16 04:00:00 9.6 23 Sur 41 Sur 0 -- -- 92
2020-01-16 03:00:00 9.6 21 Sur 36 Sur 0 -- -- 92
2020-01-16 02:00:00 9.6 14 Sur 28 Sur 0 -- -- 91
2020-01-16 01:00:00 9.5 16 Sur 35 Sur 0 -- -- 91
2020-01-16 00:00:00 9.6 17 Sur 36 Sur 0 -- -- 90
2020-01-15 23:00:00 9.5 23 Sur 36 Sur 0 -- -- 90
2020-01-15 22:00:00 9.4 22 Sur 32 Sur 0 -- -- 91
2020-01-15 21:00:00 9.4 17 Sur 33 Sur 0.2 -- -- 94
2020-01-15 20:00:00 9.3 18 Sur 30 Sur 0 -- -- 91
2020-01-15 19:00:00 9.9 18 Sur 32 Sudoeste 0 -- -- 88
2020-01-15 18:00:00 10.3 19 Sur 31 Sudoeste 0 -- -- 87
2020-01-15 17:00:00 11.3 18 Sur 31 Sudoeste 0 -- -- 84
2020-01-15 16:00:00 12.5 21 Sudoeste 42 Sudoeste 0 -- -- 79
2020-01-15 15:00:00 11.8 21 Sur 33 Sudoeste 0 -- -- 83
2020-01-15 14:00:00 10.3 14 Sur 38 Sur 0 -- -- 88
2020-01-15 13:00:00 9.3 22 Sur 36 Sur 0 -- -- 88
2020-01-15 12:00:00 8.5 17 Sur 27 Sur 0 -- -- 90
2020-01-15 11:00:00 6.8 12 Sur 23 Oeste 4.6 -- -- 96
2020-01-15 10:00:00 6.4 19 Oeste 46 Sudoeste 5.6 -- -- 96
2020-01-15 09:00:00 7.6 28 Sur 49 Sur 0 -- -- 89
2020-01-15 08:00:00 7.5 27 Sur 46 Sur 0 -- -- 88
2020-01-15 07:00:00 7.6 24 Sur 47 Sur 0 -- -- 89
2020-01-15 06:00:00 7.9 25 Sur 49 Sur 0 -- -- 88
2020-01-15 05:00:00 7.8 26 Sur 43 Sur 0 -- -- 88
2020-01-15 04:00:00 8.1 22 Sur 46 Sur 0 -- -- 86
2020-01-15 03:00:00 8.1 27 Sur 44 Sur 0 -- -- 86
2020-01-15 02:00:00 8 23 Sur 45 Sudoeste 0 -- -- 87
2020-01-15 01:00:00 7.7 29 Sur 51 Sudoeste 0 -- -- 90
2020-01-15 00:00:00 7.2 21 Sur 41 Sur 0 -- -- 91
2020-01-14 23:00:00 6.7 23 Sur 40 Sur 0 -- -- 93
2020-01-14 22:00:00 6.3 24 Sur 39 Sur 0.2 -- -- 94
2020-01-14 21:00:00 5.8 19 Sur 34 Sur 0.2 -- -- 94
2020-01-14 20:00:00 5.9 21 Sur 32 Sudoeste 0.2 -- -- 93
2020-01-14 19:00:00 6.4 19 Sur 37 Sur 0 -- -- 88
2020-01-14 18:00:00 6.8 24 Sur 40 Sur 0 -- -- 84
2020-01-14 17:00:00 8 20 Sur 42 Sur 0 -- -- 80
2020-01-14 16:00:00 7.6 14 Sur 31 Sur 0 -- -- 81
2020-01-14 15:00:00 7.8 19 Sur 35 Sudoeste 0 -- -- 80
2020-01-14 14:00:00 8.2 19 Sur 37 Sur 0 -- -- 78
2020-01-14 13:00:00 7.8 18 Sur 37 Sur 0 -- -- 78
2020-01-14 12:00:00 6.5 22 Sur 37 Sudoeste 0 -- -- 81
2020-01-14 11:00:00 6.1 16 Sur 28 Sur 0 -- -- 83
2020-01-14 10:00:00 5 15 Sur 28 Sur 0 -- -- 85
2020-01-14 09:00:00 4.7 19 Sur 31 Sur 0 -- -- 84
2020-01-14 08:00:00 4.4 18 Sur 27 Sur 0 -- -- 84
2020-01-14 07:00:00 4.6 20 Sur 28 Sur 0 -- -- 82
2020-01-14 06:00:00 4.5 16 Sur 24 Sur 0 -- -- 83
2020-01-14 05:00:00 4.6 16 Sur 25 Sur 0 -- -- 83
2020-01-14 04:00:00 4.6 12 Sur 24 Sur 0 -- -- 83
2020-01-14 03:00:00 4.7 12 Sur 20 Sur 0 -- -- 83
2020-01-14 02:00:00 4.8 8 Sudoeste 19 Sudoeste 0 -- -- 83
2020-01-14 01:00:00 4.9 13 Sudoeste 25 Sudoeste 0 -- -- 83
2020-01-14 00:00:00 4.6 14 Sur 27 Sudoeste 0 -- -- 84
2020-01-13 23:00:00 3.7 6 Sudoeste 20 Sudoeste 0 -- -- 87
2020-01-13 22:00:00 3.7 14 Sudoeste 23 Sudoeste 0 -- -- 89
2020-01-13 21:00:00 2.4 4 Oeste 19 Sudoeste 0 -- -- 90
2020-01-13 20:00:00 2.9 10 Oeste 21 Sudoeste 0 -- -- 87
2020-01-13 19:00:00 3.9 8 Sudoeste 16 Sudoeste 0 -- -- 81
2020-01-13 18:00:00 7.2 6 Oeste 19 Oeste 0 -- -- 68
2020-01-13 17:00:00 10.2 9 Oeste 22 Oeste 0 -- -- 59
2020-01-13 16:00:00 9.6 7 Oeste 15 Noroeste 0 -- -- 65
2020-01-13 15:00:00 7.3 6 Oeste 12 Noroeste 0 -- -- 71
2020-01-13 14:00:00 4.6 5 Oeste 11 Oeste 0 -- -- 86
2020-01-13 13:00:00 1.2 3 Norte 9 Norte 0 -- -- 95
2020-01-13 12:00:00 -1 0 Calma -- -- 0.2 -- -- 97
2020-01-13 11:00:00 -2.2 0 Calma -- -- 0 -- -- 98
2020-01-13 10:00:00 -3.3 0 Calma -- -- 0 -- -- 98
2020-01-13 09:00:00 -3.8 0 Calma -- -- 0 -- -- 98
2020-01-13 08:00:00 -4.1 0 Calma -- -- 0 -- -- 97
2020-01-13 07:00:00 -4 0 Calma -- -- 0 -- -- 97
2020-01-13 06:00:00 -4.6 0 Calma -- -- 0 -- -- 97
2020-01-13 05:00:00 -4.1 0 Calma -- -- 0 -- -- 97
2020-01-13 04:00:00 -3.8 0 Calma -- -- 0 -- -- 98
2020-01-13 03:00:00 -3.2 0 Calma -- -- 0 -- -- 98
2020-01-13 02:00:00 -3 0 Calma -- -- 0 -- -- 98
2020-01-13 01:00:00 -2.6 0 Calma -- -- 0 -- -- 99
2020-01-13 00:00:00 -2.3 0 Calma -- -- 0 -- -- 99
2020-01-12 23:00:00 -2.2 0 Calma 6 Este 0 -- -- 99
2020-01-12 22:00:00 -2.1 3 Norte 7 Nordeste 0 -- -- 99
2020-01-12 21:00:00 -1.9 6 Este 10 Este 0 -- -- 98
2020-01-12 20:00:00 -1.1 6 Este 10 Este 0 -- -- 97
2020-01-12 19:00:00 -1.3 3 Este 5 Este 0 -- -- 96
2020-01-12 18:00:00 1.4 2 Nordeste 8 Norte 0 -- -- 87
2020-01-12 17:00:00 4 5 Norte 11 Norte 0 -- -- 80
2020-01-12 16:00:00 5.5 5 Nordeste 12 Nordeste 0 -- -- 76
2020-01-12 15:00:00 5.3 5 Nordeste 15 Este 0 -- -- 78
2020-01-12 14:00:00 3.6 9 Este 14 Este 0 -- -- 82
2020-01-12 13:00:00 1.5 6 Este 13 Nordeste 0 -- -- 89
2020-01-12 12:00:00 0.1 4 Nordeste 12 Este 0 -- -- 97
2020-01-12 11:00:00 -2.1 5 Este 10 Este 0 -- -- 98
2020-01-12 10:00:00 -3.2 0 Calma 10 Sudeste 0 -- -- 98
2020-01-12 09:00:00 -3.5 5 Este 9 Este 0 -- -- 98
2020-01-12 08:00:00 -3.9 3 Este 7 Este 0 -- -- 98
2020-01-12 07:00:00 -3.9 3 Este 4 Este 0 -- -- 99
2020-01-12 06:00:00 -3.8 4 Sudeste 6 Sudeste 0 -- -- 99
2020-01-12 05:00:00 -3.9 2 Oeste 4 Oeste 0 -- -- 99
2020-01-12 04:00:00 -2.7 0 Calma 2 Este 0 -- -- 99
2020-01-12 03:00:00 -0.9 0 Calma 5 Sudeste 0 -- -- 100
2020-01-12 02:00:00 -0.4 0 Calma 2 Este 0 -- -- 99
2020-01-12 01:00:00 0 0 Calma 5 Oeste 0 -- -- 97
2020-01-12 00:00:00 0.1 3 Oeste 5 Oeste 0 -- -- 98
2020-01-11 23:00:00 0.8 2 Sudoeste 12 Sudeste 0 -- -- 93
2020-01-11 22:00:00 2.6 10 Sudeste 13 Sudeste 0 -- -- 88
2020-01-11 21:00:00 2.8 8 Sudeste 12 Sudeste 0 -- -- 88
2020-01-11 20:00:00 3.9 8 Sudeste 9 Sudeste 0 -- -- 81
2020-01-11 19:00:00 4.6 6 Sudeste 8 Sudeste 0 -- -- 78
2020-01-11 18:00:00 7.1 4 Este 11 Este 0 -- -- 66
2020-01-11 17:00:00 9.9 8 Este 14 Este 0 -- -- 58
2020-01-11 16:00:00 9.3 12 Este 21 Este 0 -- -- 61
2020-01-11 15:00:00 9.3 11 Este 20 Este 0 -- -- 64
2020-01-11 14:00:00 8 11 Este 22 Este 0 -- -- 69
2020-01-11 13:00:00 7.5 11 Este 18 Nordeste 0 -- -- 70
2020-01-11 12:00:00 5.9 4 Nordeste 12 Este 0 -- -- 77
2020-01-11 11:00:00 3.5 0 Calma 6 Nordeste 0 -- -- 80
2020-01-11 10:00:00 1.4 2 Este 5 Este 0 -- -- 96
2020-01-11 09:00:00 -2.1 0 Calma 5 Este 0 -- -- 98
2020-01-11 08:00:00 -1.4 0 Calma 5 Este 0 -- -- 98
2020-01-11 07:00:00 -0.9 3 Este 9 Este 0 -- -- 98
2020-01-11 06:00:00 -0.1 4 Este 9 Este 0 -- -- 97
2020-01-11 05:00:00 -0.2 5 Este 6 Este 0 -- -- 97
2020-01-11 04:00:00 -0.2 0 Calma 5 Nordeste 0 -- -- 96
2020-01-11 03:00:00 0.3 5 Este 8 Este 0 -- -- 91
2020-01-11 02:00:00 0.7 2 Nordeste 5 Nordeste 0 -- -- 91
2020-01-11 01:00:00 1.7 2 Este 4 Este 0 -- -- 88
2020-01-11 00:00:00 2.5 0 Calma 5 Este 0 -- -- 87
2020-01-10 23:00:00 2.2 2 Nordeste 11 Sudeste 0 -- -- 85
2020-01-10 22:00:00 3.6 9 Sudeste 21 Sudeste 0 -- -- 79
2020-01-10 21:00:00 4.1 16 Sudeste 21 Sudeste 0 -- -- 77
2020-01-10 20:00:00 4.8 13 Sudeste 19 Sudeste 0 -- -- 76
2020-01-10 19:00:00 5.3 14 Este 20 Este 0 -- -- 73
2020-01-10 18:00:00 7.8 12 Este 24 Este 0 -- -- 64
2020-01-10 17:00:00 10.2 17 Este 27 Este 0 -- -- 54
2020-01-10 16:00:00 11.3 17 Este 28 Este 0 -- -- 47
2020-01-10 15:00:00 11.1 17 Nordeste 27 Este 0 -- -- 47
2020-01-10 14:00:00 9.8 8 Norte 13 Nordeste 0 -- -- 58
2020-01-10 13:00:00 8.3 9 Nordeste 14 Nordeste 0 -- -- 65
2020-01-10 12:00:00 8.1 3 Este 12 Este 0 -- -- 65
2020-01-10 11:00:00 5.4 5 Sudeste 9 Sudeste 0 -- -- 78
2020-01-10 10:00:00 3.3 3 Este 11 Este 0 -- -- 87
2020-01-10 09:00:00 -0.1 0 Calma 3 Este 0 -- -- 97
2020-01-10 08:00:00 0.1 0 Calma 4 Noroeste 0 -- -- 95
2020-01-10 07:00:00 0.5 2 Sudoeste 8 Oeste 0 -- -- 93
2020-01-10 06:00:00 1.2 4 Oeste 8 Oeste 0 -- -- 90
2020-01-10 05:00:00 1.9 6 Oeste 12 Noroeste 0 -- -- 87
2020-01-10 04:00:00 2.9 8 Noroeste 20 Noroeste 0 -- -- 86
2020-01-10 03:00:00 3.5 9 Oeste 16 Oeste 0 -- -- 82
2020-01-10 02:00:00 3.7 3 Oeste 31 Oeste 0 -- -- 79
2020-01-10 01:00:00 3.8 14 Oeste 29 Oeste 0 -- -- 84
2020-01-10 00:00:00 4.6 20 Noroeste 32 Noroeste 0 -- -- 85
2020-01-09 23:00:00 5.7 22 Noroeste 34 Oeste 0 -- -- 76
2020-01-09 22:00:00 6.9 12 Oeste 33 Oeste 0 -- -- 85
2020-01-09 21:00:00 7.1 12 Oeste 23 Oeste 0 -- -- 88
2020-01-09 20:00:00 6.6 12 Oeste 22 Oeste 0 -- -- 91
2020-01-09 19:00:00 7.9 19 Oeste 38 Oeste 0 -- -- 83
2020-01-09 18:00:00 9.3 22 Oeste 38 Oeste 0 -- -- 87
2020-01-09 17:00:00 10.8 22 Oeste 35 Sudoeste 0 -- -- 88
2020-01-09 16:00:00 11.3 11 Oeste 24 Sudoeste 0 -- -- 86
2020-01-09 15:00:00 10.1 10 Noroeste 27 Sudoeste 0 -- -- 80
2020-01-09 14:00:00 11.2 10 Sudoeste 21 Sur 0 -- -- 86
2020-01-09 13:00:00 6.4 3 Noroeste 15 Sudoeste 0 -- -- 98
2020-01-09 12:00:00 6.1 9 Sudoeste 17 Sur 0 -- -- 100
2020-01-09 11:00:00 2.4 3 Oeste 6 Sudoeste 0 -- -- 99
2020-01-09 10:00:00 2.3 3 Sur 15 Sur 0 -- -- 100
2020-01-09 09:00:00 0.5 0 Calma 3 Noroeste 0 -- -- 97
2020-01-09 08:00:00 1 5 Sur 12 Sur 0 -- -- 98
2020-01-09 07:00:00 0.1 3 Noroeste 22 Sur 0 -- -- 92
2020-01-09 06:00:00 0.4 3 Oeste 13 Sudoeste 0 -- -- 95
2020-01-09 05:00:00 0 0 Calma 6 Sur 0 -- -- 97
2020-01-09 04:00:00 0.1 0 Calma 4 Noroeste 0 -- -- 97
2020-01-09 03:00:00 0.9 3 Oeste 9 Sudoeste 0 -- -- 94
2020-01-09 02:00:00 0.5 4 Noroeste 6 Noroeste 0 -- -- 96
2020-01-09 01:00:00 0.9 2 Noroeste 4 Sur 0 -- -- 94
2020-01-09 00:00:00 2.4 5 Sudoeste 8 Sudoeste 0 -- -- 91
2020-01-08 23:00:00 1.4 4 Oeste 8 Noroeste 0 -- -- 93
2020-01-08 22:00:00 2.9 3 Noroeste 8 Sudoeste 0 -- -- 86
2020-01-08 21:00:00 3.4 5 Oeste 6 Sudoeste 0 -- -- 82
2020-01-08 20:00:00 5.1 0 Calma 3 Sudoeste 0 -- -- 74
2020-01-08 19:00:00 5.9 3 Este 6 Este 0 -- -- 70
2020-01-08 18:00:00 8.5 0 Calma 2 Nordeste 0 -- -- 60
2020-01-08 17:00:00 11.1 3 Nordeste 6 Nordeste 0 -- -- 55
2020-01-08 16:00:00 10.4 3 Norte 9 Norte 0 -- -- 59
2020-01-08 15:00:00 8.9 4 Norte 11 Nordeste 0 -- -- 66
2020-01-08 14:00:00 7.2 4 Nordeste 10 Norte 0 -- -- 68
2020-01-08 13:00:00 5 9 Nordeste 16 Nordeste 0 -- -- 83
2020-01-08 12:00:00 2.4 5 Norte 10 Este 0 -- -- 95
2020-01-08 11:00:00 -1.2 0 Calma -- -- 0.2 -- -- 98
2020-01-08 10:00:00 -2.4 0 Calma -- -- 0 -- -- 99
2020-01-08 09:00:00 -2.9 0 Calma -- -- 0 -- -- 99
2020-01-08 08:00:00 -3.1 0 Calma -- -- 0 -- -- 99
2020-01-08 07:00:00 -2.9 0 Calma -- -- 0 -- -- 99
2020-01-08 06:00:00 -2.9 0 Calma -- -- 0 -- -- 99
2020-01-08 05:00:00 -2.8 0 Calma -- -- 0 -- -- 99
2020-01-08 04:00:00 -2.2 0 Calma -- -- 0 -- -- 99
2020-01-08 03:00:00 -1.9 0 Calma -- -- 0 -- -- 99
2020-01-08 02:00:00 -2.2 0 Calma 4 Nordeste 0 -- -- 99
2020-01-08 01:00:00 -2.1 2 Nordeste 5 Nordeste 0 -- -- 99
2020-01-08 00:00:00 -2.3 2 Nordeste 4 Nordeste 0 -- -- 99
2020-01-07 23:00:00 -2.4 0 Calma 3 Nordeste 0 -- -- 99
2020-01-07 22:00:00 -1.6 0 Calma 6 Este 0 -- -- 99
2020-01-07 21:00:00 -0.8 0 Calma 3 Noroeste 0 -- -- 99
2020-01-07 20:00:00 0 0 Calma 3 Sudeste 0 -- -- 96
2020-01-07 19:00:00 0.5 0 Calma 5 Norte 0 -- -- 95
2020-01-07 18:00:00 2.5 3 Norte 6 Nordeste 0 -- -- 86
2020-01-07 17:00:00 5.5 4 Norte 8 Noroeste 0 -- -- 75
2020-01-07 16:00:00 5.6 3 Nordeste 9 Noroeste 0 -- -- 79
2020-01-07 15:00:00 3.8 4 Norte 10 Este 0 -- -- 95
2020-01-07 14:00:00 0.9 4 Nordeste 12 Sudeste 0 -- -- 99
2020-01-07 13:00:00 0.2 5 Este 10 Este 0 -- -- 99
2020-01-07 12:00:00 -0.5 0 Calma -- -- 0 -- -- 100
2020-01-07 11:00:00 -0.9 0 Calma -- -- 0 -- -- 100
2020-01-07 10:00:00 -1.5 0 Calma -- -- 0 -- -- 100
2020-01-07 09:00:00 -1.7 0 Calma -- -- 0 -- -- 100
2020-01-07 08:00:00 -1.8 0 Calma -- -- 0 -- -- 100
2020-01-07 07:00:00 -1.4 0 Calma -- -- 0 -- -- 100
2020-01-07 06:00:00 -1.2 0 Calma -- -- 0 -- -- 100
2020-01-07 05:00:00 -0.8 0 Calma 8 Nordeste 0 -- -- 100
2020-01-07 04:00:00 -0.8 6 Nordeste 12 Nordeste 0 -- -- 100
2020-01-07 03:00:00 -1 7 Nordeste 17 Nordeste 0 -- -- 100
2020-01-07 02:00:00 -1.1 7 Nordeste 12 Nordeste 0 -- -- 100
2020-01-07 01:00:00 -0.8 5 Nordeste 9 Nordeste 0 -- -- 100
2020-01-07 00:00:00 -0.2 4 Nordeste 8 Nordeste 0 -- -- 100
2020-01-06 23:00:00 0 3 Nordeste 8 Norte 0 -- -- 100
2020-01-06 22:00:00 -0.2 3 Este 12 Este 0 -- -- 100
2020-01-06 21:00:00 0.1 6 Este 10 Nordeste 0 -- -- 100
2020-01-06 20:00:00 0.2 3 Nordeste 8 Este 0 -- -- 100
2020-01-06 19:00:00 0.2 2 Nordeste 5 Este 0 -- -- 100
2020-01-06 18:00:00 0.7 3 Nordeste 9 Norte 0 -- -- 99
2020-01-06 17:00:00 1.3 2 Este 8 Sudeste 0 -- -- 98
2020-01-06 16:00:00 1 3 Nordeste 8 Nordeste 0 -- -- 99
2020-01-06 15:00:00 0.6 2 Noroeste 6 Noroeste 0 -- -- 99
2020-01-06 14:00:00 0.2 4 Noroeste 10 Noroeste 0 -- -- 100
2020-01-06 13:00:00 0.6 5 Noroeste 9 Noroeste 0 -- -- 98
2020-01-06 12:00:00 -0.3 4 Este 8 Este 0.2 -- -- 99
2020-01-06 11:00:00 -1.2 0 Calma 6 Este 0 -- -- 99
2020-01-06 10:00:00 -1.4 0 Calma 9 Este 0 -- -- 100